createdAt,value
2023-03-20T00:01:30.004Z,84.92
2023-03-20T00:03:57.179Z,84.90
2023-03-20T00:06:26.261Z,84.58
2023-03-20T00:08:54.789Z,85.31
2023-03-20T00:11:30.543Z,85.10
2023-03-20T00:14:08.646Z,85.80
2023-03-20T00:16:38.399Z,85.31
2023-03-20T00:19:06.899Z,85.29
2023-03-20T00:21:34.124Z,85.34
2023-03-20T00:24:00.613Z,85.83
2023-03-20T00:26:33.027Z,86.02
2023-03-20T00:28:59.451Z,85.58
2023-03-20T00:31:37.690Z,85.53
2023-03-20T00:34:06.996Z,85.58
2023-03-20T00:36:33.483Z,86.03
2023-03-20T00:39:00.167Z,86.23
2023-03-20T00:41:48.521Z,86.19
2023-03-20T00:44:33.718Z,85.66
2023-03-20T00:47:04.015Z,85.12
2023-03-20T00:49:35.458Z,85.18
2023-03-20T00:52:03.339Z,84.63
2023-03-20T00:54:30.775Z,84.31
2023-03-20T00:57:25.876Z,84.90
2023-03-20T01:00:05.117Z,83.81
2023-03-20T01:02:32.055Z,84.65
2023-03-20T01:05:00.265Z,84.77
2023-03-20T01:07:27.669Z,84.75
2023-03-20T01:09:54.678Z,84.71
2023-03-20T01:12:21.102Z,84.87
2023-03-20T01:14:53.535Z,84.38
2023-03-20T01:17:22.953Z,84.53
2023-03-20T01:19:49.638Z,84.25
2023-03-20T01:22:17.973Z,84.20
2023-03-20T01:24:44.571Z,84.61
2023-03-20T01:27:16.186Z,84.41
2023-03-20T01:29:43.175Z,84.80
2023-03-20T01:32:12.588Z,84.41
2023-03-20T01:34:39.249Z,84.74
2023-03-20T01:37:11.398Z,84.76
2023-03-20T01:39:38.340Z,84.13
2023-03-20T01:42:07.982Z,84.60
2023-03-20T01:44:36.391Z,83.79
2023-03-20T01:47:15.820Z,84.20
2023-03-20T01:50:22.137Z,83.98
2023-03-20T01:52:55.137Z,84.49
2023-03-20T01:55:23.459Z,84.62
2023-03-20T01:57:59.033Z,84.45
2023-03-20T02:00:25.642Z,83.79
2023-03-20T02:02:52.992Z,84.13
2023-03-20T02:05:39.791Z,84.11
2023-03-20T02:08:29.074Z,84.25
2023-03-20T02:10:58.208Z,84.07
2023-03-20T02:13:30.186Z,83.92
2023-03-20T02:16:04.589Z,83.63
2023-03-20T02:18:52.093Z,83.12
2023-03-20T02:22:09.797Z,83.50
2023-03-20T02:24:54.091Z,82.99
2023-03-20T02:27:47.003Z,83.89
2023-03-20T02:30:24.151Z,83.55
2023-03-20T02:33:18.583Z,83.21
2023-03-20T02:36:02.520Z,83.05
2023-03-20T02:38:59.940Z,82.79
2023-03-20T02:41:58.767Z,82.46
2023-03-20T02:44:46.174Z,82.21
2023-03-20T02:47:43.852Z,82.65
2023-03-20T02:50:39.913Z,82.00
2023-03-20T02:53:38.643Z,81.27
2023-03-20T02:56:24.984Z,81.49
2023-03-20T02:59:03.220Z,81.35
2023-03-20T03:01:42.128Z,81.89
2023-03-20T03:04:18.112Z,82.53
2023-03-20T03:06:48.712Z,82.70
2023-03-20T03:09:38.154Z,82.05
2023-03-20T03:12:14.242Z,82.42
2023-03-20T03:14:46.477Z,82.41
2023-03-20T03:17:17.574Z,82.10
2023-03-20T03:19:48.305Z,81.65
2023-03-20T03:22:18.383Z,82.40
2023-03-20T03:24:47.584Z,81.75
2023-03-20T03:27:26.017Z,81.69
2023-03-20T03:29:58.983Z,81.14
2023-03-20T03:32:33.309Z,80.95
2023-03-20T03:35:01.440Z,80.64
2023-03-20T03:37:42.972Z,79.76
2023-03-20T03:40:28.925Z,78.89
2023-03-20T03:43:07.615Z,78.76
2023-03-20T03:45:43.528Z,79.35
2023-03-20T03:48:19.015Z,79.44
2023-03-20T03:51:00.332Z,78.47
2023-03-20T03:53:32.072Z,79.43
2023-03-20T03:56:03.900Z,79.66
2023-03-20T03:58:43.175Z,79.62
2023-03-20T04:01:14.035Z,79.99
2023-03-20T04:03:46.821Z,79.60
2023-03-20T04:06:16.093Z,78.83
2023-03-20T04:08:43.516Z,78.91
2023-03-20T04:11:22.388Z,78.67
2023-03-20T04:13:50.585Z,78.58
2023-03-20T04:16:18.211Z,78.91
2023-03-20T04:18:46.317Z,79.22
2023-03-20T04:21:15.990Z,79.92
2023-03-20T04:23:43.415Z,79.98
2023-03-20T04:26:09.824Z,80.61
2023-03-20T04:28:36.576Z,81.39
2023-03-20T04:31:21.747Z,81.22
2023-03-20T04:34:07.092Z,81.69
2023-03-20T04:37:03.199Z,82.04
2023-03-20T04:39:42.932Z,81.47
2023-03-20T04:42:11.632Z,82.43
2023-03-20T04:44:37.995Z,82.14
2023-03-20T04:47:04.380Z,82.56
2023-03-20T04:49:33.096Z,82.74
2023-03-20T04:51:59.658Z,83.08
2023-03-20T04:54:40.898Z,83.04
2023-03-20T04:57:07.249Z,83.19
2023-03-20T04:59:33.920Z,83.45
2023-03-20T05:02:00.929Z,82.98
2023-03-20T05:04:27.871Z,82.85
2023-03-20T05:06:54.231Z,82.61
2023-03-20T05:09:23.905Z,81.84
2023-03-20T05:11:51.547Z,82.26
2023-03-20T05:14:37.265Z,82.42
2023-03-20T05:17:24.896Z,82.83
2023-03-20T05:20:10.902Z,82.99
2023-03-20T05:23:06.537Z,83.52
2023-03-20T05:26:05.581Z,83.88
2023-03-20T05:28:51.846Z,83.82
2023-03-20T05:31:36.735Z,84.29
2023-03-20T05:34:12.556Z,85.37
2023-03-20T05:37:02.107Z,84.51
2023-03-20T05:39:46.937Z,84.32
2023-03-20T05:42:39.690Z,84.78
2023-03-20T05:45:06.496Z,84.29
2023-03-20T05:47:45.890Z,84.33
2023-03-20T05:50:45.776Z,83.76
2023-03-20T05:53:37.192Z,84.47
2023-03-20T05:56:17.356Z,84.46
2023-03-20T05:59:02.633Z,84.80
2023-03-20T06:01:48.078Z,84.02
2023-03-20T06:04:24.654Z,84.44
2023-03-20T06:07:14.181Z,84.48
2023-03-20T06:09:43.288Z,84.19
2023-03-20T06:12:12.667Z,83.80
2023-03-20T06:14:39.577Z,84.29
2023-03-20T06:17:07.802Z,83.49
2023-03-20T06:19:34.418Z,84.16
2023-03-20T06:22:00.949Z,83.63
2023-03-20T06:24:27.414Z,83.01
2023-03-20T06:26:54.023Z,82.97
2023-03-20T06:29:20.462Z,82.94
2023-03-20T06:31:49.289Z,83.28
2023-03-20T06:34:23.385Z,83.00
2023-03-20T06:36:50.086Z,82.44
2023-03-20T06:39:20.276Z,82.34
2023-03-20T06:41:47.341Z,82.16
2023-03-20T06:44:13.787Z,81.82
2023-03-20T06:47:12.228Z,81.64
2023-03-20T06:49:40.151Z,81.71
2023-03-20T06:52:08.910Z,81.40
2023-03-20T06:54:36.737Z,80.38
2023-03-20T06:57:03.128Z,80.64
2023-03-20T06:59:29.517Z,81.14
2023-03-20T07:01:57.183Z,80.37
2023-03-20T07:04:24.041Z,80.39
2023-03-20T07:06:53.799Z,80.96
2023-03-20T07:09:21.995Z,80.52
2023-03-20T07:11:48.402Z,80.58
2023-03-20T07:14:15.078Z,80.67
2023-03-20T07:16:56.271Z,80.20
2023-03-20T07:19:23.147Z,80.14
2023-03-20T07:21:59.352Z,79.72
2023-03-20T07:24:26.219Z,79.60
2023-03-20T07:26:52.601Z,79.29
2023-03-20T07:29:19.819Z,79.57
2023-03-20T07:31:46.321Z,78.95
2023-03-20T07:34:21.091Z,79.54
2023-03-20T07:36:47.463Z,78.45
2023-03-20T07:39:18.013Z,78.77
2023-03-20T07:41:53.128Z,78.93
2023-03-20T07:44:35.565Z,77.72
2023-03-20T07:47:08.328Z,77.75
2023-03-20T07:49:34.710Z,76.96
2023-03-20T07:52:01.660Z,76.15
2023-03-20T07:54:30.707Z,76.62
2023-03-20T07:56:57.644Z,77.25
2023-03-20T07:59:24.186Z,76.78
2023-03-20T08:01:50.628Z,76.62
2023-03-20T08:04:19.469Z,77.11
2023-03-20T08:06:46.308Z,76.85
2023-03-20T08:09:12.794Z,76.66
2023-03-20T08:11:39.129Z,76.31
2023-03-20T08:14:05.825Z,76.19
2023-03-20T08:16:32.267Z,76.37
2023-03-20T08:19:01.415Z,75.83
2023-03-20T08:21:29.102Z,75.10
2023-03-20T08:23:55.820Z,74.57
2023-03-20T08:26:23.142Z,74.47
2023-03-20T08:28:50.479Z,74.39
2023-03-20T08:31:18.029Z,74.18
2023-03-20T08:33:45.887Z,73.63
2023-03-20T08:36:12.375Z,72.59
2023-03-20T08:38:38.865Z,72.73
2023-03-20T08:41:06.888Z,72.40
2023-03-20T08:43:33.384Z,72.07
2023-03-20T08:45:59.722Z,71.96
2023-03-20T08:48:26.216Z,70.18
2023-03-20T08:50:52.585Z,69.88
2023-03-20T08:53:21.702Z,69.34
2023-03-20T08:55:49.937Z,69.10
2023-03-20T08:58:16.963Z,68.89
2023-03-20T09:00:43.890Z,67.91
2023-03-20T09:03:14.739Z,68.60
2023-03-20T09:05:43.825Z,67.77
2023-03-20T09:08:10.134Z,66.69
2023-03-20T09:10:36.634Z,66.18
2023-03-20T09:13:15.523Z,65.84
2023-03-20T09:15:49.446Z,65.01
2023-03-20T09:18:15.852Z,65.02
2023-03-20T09:20:42.182Z,65.54
2023-03-20T09:23:08.524Z,65.68
2023-03-20T09:25:35.224Z,65.14
2023-03-20T09:28:01.729Z,65.19
2023-03-20T09:30:28.055Z,64.51
2023-03-20T09:32:54.418Z,63.09
2023-03-20T09:35:21.233Z,64.56
2023-03-20T09:37:47.828Z,64.35
2023-03-20T09:40:43.251Z,63.43
2023-03-20T09:43:43.825Z,63.96
2023-03-20T09:46:19.564Z,63.38
2023-03-20T09:49:12.213Z,64.05
2023-03-20T09:51:49.843Z,63.25
2023-03-20T09:54:52.728Z,64.80
2023-03-20T09:57:26.944Z,63.64
2023-03-20T10:00:01.632Z,61.52
2023-03-20T10:02:45.284Z,61.72
2023-03-20T10:05:26.167Z,60.63
2023-03-20T10:07:58.749Z,60.59
2023-03-20T10:10:55.118Z,59.56
2023-03-20T10:13:40.055Z,60.97
2023-03-20T10:16:40.451Z,60.00
2023-03-20T10:19:24.567Z,61.24
2023-03-20T10:22:00.831Z,60.30
2023-03-20T10:24:32.345Z,60.20
2023-03-20T10:27:21.544Z,59.60
2023-03-20T10:29:59.470Z,60.22
2023-03-20T10:32:33.655Z,59.00
2023-03-20T10:35:20.284Z,59.93
2023-03-20T10:38:23.908Z,60.74
2023-03-20T10:40:51.010Z,60.95
2023-03-20T10:43:30.855Z,60.18
2023-03-20T10:46:32.205Z,61.18
2023-03-20T10:49:14.353Z,60.27
2023-03-20T10:51:51.135Z,60.83
2023-03-20T10:54:27.926Z,60.00
2023-03-20T10:56:58.966Z,60.41
2023-03-20T10:59:40.303Z,59.68
2023-03-20T11:02:14.799Z,60.28
2023-03-20T11:04:41.253Z,61.22
2023-03-20T11:07:24.266Z,61.52
2023-03-20T11:10:07.899Z,63.00
2023-03-20T11:12:35.841Z,61.98
2023-03-20T11:15:14.588Z,60.31
2023-03-20T11:17:41.456Z,61.32
2023-03-20T11:20:08.438Z,60.64
2023-03-20T11:22:36.843Z,59.95
2023-03-20T11:25:05.299Z,60.33
2023-03-20T11:27:36.202Z,59.72
2023-03-20T11:30:06.037Z,60.13
2023-03-20T11:32:40.790Z,60.64
2023-03-20T11:35:33.427Z,60.59
2023-03-20T11:38:15.340Z,61.19
2023-03-20T11:40:41.704Z,61.74
2023-03-20T11:43:14.689Z,62.08
2023-03-20T11:45:43.883Z,62.31
2023-03-20T11:48:21.914Z,62.11
2023-03-20T11:50:51.869Z,62.09
2023-03-20T11:53:40.583Z,62.20
2023-03-20T11:56:23.932Z,62.26
2023-03-20T11:59:09.084Z,63.27
2023-03-20T12:01:46.901Z,62.20
2023-03-20T12:04:17.132Z,62.39
2023-03-20T12:06:53.994Z,62.25
2023-03-20T12:09:49.391Z,62.00
2023-03-20T12:12:43.632Z,62.14
2023-03-20T12:15:12.745Z,62.36
2023-03-20T12:18:01.077Z,62.47
2023-03-20T12:20:59.491Z,62.90
2023-03-20T12:23:34.454Z,63.78
2023-03-20T12:26:10.891Z,61.29
2023-03-20T12:28:50.206Z,62.46
2023-03-20T12:31:50.501Z,64.27
2023-03-20T12:34:34.839Z,64.91
2023-03-20T12:37:02.251Z,64.97
2023-03-20T12:39:36.298Z,66.16
2023-03-20T12:42:23.040Z,65.41
2023-03-20T12:45:03.971Z,66.60
2023-03-20T12:47:47.134Z,67.44
2023-03-20T12:50:39.642Z,65.73
2023-03-20T12:53:11.947Z,66.29
2023-03-20T12:55:59.014Z,67.04
2023-03-20T12:58:45.833Z,65.74
2023-03-20T13:01:22.111Z,65.64
2023-03-20T13:03:55.440Z,66.25
2023-03-20T13:06:40.507Z,65.39
2023-03-20T13:09:45.156Z,67.53
2023-03-20T13:12:45.820Z,67.70
2023-03-20T13:15:48.684Z,70.15
2023-03-20T13:18:38.781Z,67.86
2023-03-20T13:21:24.337Z,67.79
2023-03-20T13:24:29.978Z,67.14
2023-03-20T13:27:09.947Z,67.47
2023-03-20T13:29:57.892Z,65.87
2023-03-20T13:32:36.599Z,65.99
2023-03-20T13:35:27.153Z,66.21
2023-03-20T13:38:15.358Z,66.45
2023-03-20T13:40:44.157Z,66.68
2023-03-20T13:43:34.725Z,65.90
2023-03-20T13:46:08.901Z,66.21
2023-03-20T13:48:40.560Z,66.65
2023-03-20T13:51:31.434Z,67.13
2023-03-20T13:53:57.843Z,67.40
2023-03-20T13:56:47.504Z,66.51
2023-03-20T13:59:41.555Z,66.96
2023-03-20T14:02:31.287Z,67.21
2023-03-20T14:05:12.293Z,67.48
2023-03-20T14:07:44.383Z,68.19
2023-03-20T14:10:24.191Z,67.40
2023-03-20T14:13:00.987Z,67.18
2023-03-20T14:15:32.126Z,67.77
2023-03-20T14:18:07.824Z,66.42
2023-03-20T14:20:38.545Z,67.35
2023-03-20T14:23:07.195Z,66.95
2023-03-20T14:25:40.621Z,68.17
2023-03-20T14:28:12.644Z,69.06
2023-03-20T14:30:44.247Z,69.05
2023-03-20T14:33:16.661Z,69.29
2023-03-20T14:35:48.889Z,70.02
2023-03-20T14:38:31.855Z,69.58
2023-03-20T14:41:19.642Z,68.77
2023-03-20T14:44:01.198Z,68.33
2023-03-20T14:46:51.755Z,68.49
2023-03-20T14:49:36.669Z,68.52
2023-03-20T14:52:18.194Z,68.28
2023-03-20T14:54:52.139Z,67.86
2023-03-20T14:57:37.633Z,68.12
2023-03-20T15:00:17.789Z,69.11
2023-03-20T15:02:48.019Z,68.67
2023-03-20T15:05:25.653Z,67.67
2023-03-20T15:07:53.171Z,66.82
2023-03-20T15:10:20.143Z,67.14
2023-03-20T15:12:48.004Z,66.45
2023-03-20T15:15:27.735Z,66.15
2023-03-20T15:17:54.710Z,66.89
2023-03-20T15:20:25.805Z,67.12
2023-03-20T15:22:58.153Z,67.88
2023-03-20T15:25:40.785Z,69.31
2023-03-20T15:28:09.250Z,70.56
2023-03-20T15:30:38.535Z,70.18
2023-03-20T15:33:06.348Z,71.64
2023-03-20T15:35:33.488Z,72.44
2023-03-20T15:38:06.057Z,72.91
2023-03-20T15:40:47.658Z,72.98
2023-03-20T15:43:24.882Z,72.83
2023-03-20T15:46:02.869Z,73.43
2023-03-20T15:48:36.692Z,72.09
2023-03-20T15:51:05.413Z,72.86
2023-03-20T15:53:37.567Z,73.74
2023-03-20T15:56:18.711Z,72.75
2023-03-20T15:58:48.831Z,72.87
2023-03-20T16:01:18.528Z,72.66
2023-03-20T16:03:45.136Z,73.19
2023-03-20T16:06:15.229Z,72.46
2023-03-20T16:08:41.762Z,73.04
2023-03-20T16:11:13.836Z,72.15
2023-03-20T16:13:43.539Z,72.84
2023-03-20T16:16:17.413Z,71.95
2023-03-20T16:18:47.687Z,72.53
2023-03-20T16:21:23.217Z,73.39
2023-03-20T16:23:53.740Z,72.77
2023-03-20T16:26:23.525Z,73.33
2023-03-20T16:28:53.881Z,73.09
2023-03-20T16:31:26.087Z,72.81
2023-03-20T16:33:52.961Z,73.14
2023-03-20T16:36:29.666Z,73.69
2023-03-20T16:38:57.376Z,75.16
2023-03-20T16:41:38.147Z,75.51
2023-03-20T16:44:13.778Z,75.49
2023-03-20T16:47:14.072Z,76.14
2023-03-20T16:50:02.137Z,75.10
2023-03-20T16:52:31.042Z,76.22
2023-03-20T16:54:59.795Z,76.39
2023-03-20T16:57:28.521Z,77.13
2023-03-20T17:00:04.575Z,77.27
2023-03-20T17:02:36.337Z,77.51
2023-03-20T17:05:12.059Z,77.73
2023-03-20T17:07:38.874Z,77.76
2023-03-20T17:10:17.021Z,78.23
2023-03-20T17:12:46.476Z,78.64
2023-03-20T17:15:18.302Z,78.63
2023-03-20T17:17:45.007Z,78.59
2023-03-20T17:20:19.837Z,78.71
2023-03-20T17:22:46.675Z,78.89
2023-03-20T17:25:13.468Z,78.96
2023-03-20T17:27:40.802Z,79.24
2023-03-20T17:30:18.015Z,78.98
2023-03-20T17:32:44.504Z,79.42
2023-03-20T17:35:10.842Z,79.10
2023-03-20T17:37:37.446Z,79.04
2023-03-20T17:40:04.216Z,79.30
2023-03-20T17:42:31.364Z,79.34
2023-03-20T17:44:59.216Z,79.53
2023-03-20T17:47:27.657Z,79.58
2023-03-20T17:49:54.791Z,79.52
2023-03-20T17:52:26.329Z,78.82
2023-03-20T17:54:52.788Z,79.49
2023-03-20T17:57:26.083Z,79.19
2023-03-20T17:59:52.552Z,79.54
2023-03-20T18:02:19.225Z,79.44
2023-03-20T18:04:46.309Z,79.55
2023-03-20T18:07:13.008Z,79.18
2023-03-20T18:09:40.773Z,79.49
2023-03-20T18:12:10.712Z,78.97
2023-03-20T18:14:37.572Z,78.09
2023-03-20T18:17:04.642Z,78.91
2023-03-20T18:19:31.156Z,78.45
2023-03-20T18:21:57.810Z,78.18
2023-03-20T18:24:24.315Z,77.66
2023-03-20T18:26:51.852Z,76.78
2023-03-20T18:29:18.834Z,76.72
2023-03-20T18:31:45.665Z,76.89
2023-03-20T18:34:12.091Z,76.76
2023-03-20T18:36:38.639Z,76.50
2023-03-20T18:39:05.774Z,76.33
2023-03-20T18:41:33.342Z,76.69
2023-03-20T18:43:59.816Z,75.56
2023-03-20T18:46:27.039Z,76.01
2023-03-20T18:48:53.864Z,76.04
2023-03-20T18:51:21.101Z,75.92
2023-03-20T18:53:47.586Z,75.93
2023-03-20T18:56:23.043Z,75.55
2023-03-20T18:58:49.733Z,75.45
2023-03-20T19:01:16.374Z,75.54
2023-03-20T19:03:44.969Z,75.19
2023-03-20T19:06:19.209Z,75.27
2023-03-20T19:08:46.737Z,75.22
2023-03-20T19:11:20.494Z,75.43
2023-03-20T19:13:51.006Z,74.16
2023-03-20T19:16:23.109Z,74.57
2023-03-20T19:18:51.118Z,74.30
2023-03-20T19:21:18.063Z,73.99
2023-03-20T19:23:44.561Z,74.46
2023-03-20T19:26:21.335Z,74.34
2023-03-20T19:28:48.858Z,74.33
2023-03-20T19:31:15.416Z,74.64
2023-03-20T19:33:41.862Z,74.93
2023-03-20T19:36:18.969Z,74.64
2023-03-20T19:38:45.494Z,74.56
2023-03-20T19:41:11.974Z,74.65
2023-03-20T19:43:51.646Z,74.28
2023-03-20T19:46:37.695Z,73.78
2023-03-20T19:49:05.914Z,74.45
2023-03-20T19:51:32.648Z,74.15
2023-03-20T19:53:58.976Z,73.84
2023-03-20T19:56:25.570Z,74.03
2023-03-20T19:58:52.180Z,74.45
2023-03-20T20:01:21.310Z,74.05
2023-03-20T20:03:49.729Z,74.43
2023-03-20T20:06:16.628Z,74.23
2023-03-20T20:08:48.464Z,74.52
2023-03-20T20:11:16.611Z,74.19
2023-03-20T20:14:04.266Z,73.93
2023-03-20T20:16:29.741Z,73.65
2023-03-20T20:18:56.126Z,74.78
2023-03-20T20:24:09.382Z,74.31
2023-03-20T20:26:40.539Z,74.96
2023-03-20T20:29:14.309Z,74.61
2023-03-20T20:31:40.717Z,75.55
2023-03-20T20:35:14.354Z,74.87
2023-03-20T20:39:40.029Z,75.44
2023-03-20T20:42:06.459Z,75.28
2023-03-20T20:44:32.998Z,75.13
2023-03-20T20:46:59.364Z,75.52
2023-03-20T20:49:25.730Z,75.52
2023-03-20T20:51:52.046Z,75.22
2023-03-20T20:54:18.899Z,75.26
2023-03-20T20:56:45.258Z,75.00
2023-03-20T20:59:11.639Z,75.03
2023-03-20T21:01:38.044Z,74.73
2023-03-20T21:04:04.406Z,74.99
2023-03-20T21:07:03.462Z,74.75
2023-03-20T21:09:17.318Z,74.98
2023-03-20T21:11:43.691Z,74.85
2023-03-20T21:14:10.513Z,74.71
2023-03-20T21:16:36.860Z,74.66
2023-03-20T21:19:03.262Z,74.43
2023-03-20T21:21:30.212Z,74.01
2023-03-20T21:23:57.038Z,74.10
2023-03-20T21:26:23.581Z,74.22
2023-03-20T21:28:49.928Z,73.78
2023-03-20T21:31:28.468Z,73.63
2023-03-20T21:33:57.690Z,73.78
2023-03-20T21:36:24.119Z,73.90
2023-03-20T21:39:08.608Z,74.73
2023-03-20T21:41:37.690Z,73.69
2023-03-20T21:44:06.263Z,73.76
2023-03-20T21:56:03.376Z,74.00
2023-03-20T22:03:30.807Z,76.08
2023-03-20T22:12:18.419Z,77.82
2023-03-20T22:17:51.320Z,78.98
2023-03-20T22:23:32.354Z,79.50
2023-03-20T22:26:19.930Z,79.92
2023-03-20T22:29:03.076Z,79.84
2023-03-20T22:42:49.647Z,80.89
2023-03-20T22:45:09.139Z,80.89
2023-03-20T22:47:36.183Z,81.61
2023-03-20T22:50:02.713Z,80.83
2023-03-20T22:52:42.019Z,81.31
2023-03-20T22:55:15.939Z,80.82
2023-03-20T22:57:50.115Z,80.65
2023-03-20T23:00:22.516Z,80.50
2023-03-20T23:02:48.868Z,80.69
2023-03-20T23:05:15.315Z,80.43
2023-03-20T23:07:41.998Z,80.73
2023-03-20T23:10:09.641Z,80.47
2023-03-20T23:12:39.140Z,80.79
2023-03-20T23:15:06.774Z,80.57
2023-03-20T23:17:33.101Z,80.20
2023-03-20T23:20:10.915Z,80.04
2023-03-20T23:22:38.513Z,79.84
2023-03-20T23:25:14.442Z,79.53
2023-03-20T23:27:44.779Z,79.10
2023-03-20T23:30:11.782Z,79.34
2023-03-20T23:32:39.591Z,79.22
2023-03-20T23:35:07.491Z,79.26
2023-03-20T23:37:34.685Z,79.03
2023-03-20T23:40:01.128Z,78.32
2023-03-20T23:42:30.748Z,78.73
2023-03-20T23:45:02.179Z,78.81
2023-03-20T23:47:44.673Z,78.58
2023-03-20T23:50:17.243Z,78.37
2023-03-20T23:52:57.138Z,78.34
2023-03-20T23:55:27.613Z,78.60
2023-03-20T23:57:53.935Z,78.55
